createdAt,value
2023-03-27T00:00:44.649Z,5.67
2023-03-27T00:01:44.841Z,5.64
2023-03-27T00:02:45.056Z,5.70
2023-03-27T00:03:45.251Z,5.70
2023-03-27T00:04:45.412Z,5.67
2023-03-27T00:05:45.566Z,5.70
2023-03-27T00:06:45.730Z,5.72
2023-03-27T00:07:45.878Z,5.70
2023-03-27T00:08:46.025Z,5.70
2023-03-27T00:09:53.186Z,5.65
2023-03-27T00:10:46.415Z,5.65
2023-03-27T00:11:46.581Z,5.64
2023-03-27T00:12:46.723Z,5.62
2023-03-27T00:13:49.268Z,5.61
2023-03-27T00:14:47.049Z,5.55
2023-03-27T00:15:47.303Z,5.55
2023-03-27T00:16:47.519Z,5.59
2023-03-27T00:17:47.637Z,5.56
2023-03-27T00:18:47.752Z,5.56
2023-03-27T00:19:47.895Z,5.51
2023-03-27T00:20:48.058Z,5.52
2023-03-27T00:21:48.225Z,5.49
2023-03-27T00:22:48.389Z,5.49
2023-03-27T00:23:48.555Z,5.47
2023-03-27T00:24:48.702Z,5.47
2023-03-27T00:25:48.881Z,5.44
2023-03-27T00:26:49.063Z,5.47
2023-03-27T00:27:49.225Z,5.51
2023-03-27T00:28:49.368Z,5.46
2023-03-27T00:29:49.525Z,5.43
2023-03-27T00:30:49.732Z,5.38
2023-03-27T00:31:49.872Z,5.34
2023-03-27T00:32:50.033Z,5.33
2023-03-27T00:33:50.192Z,5.29
2023-03-27T00:34:50.330Z,5.23
2023-03-27T00:35:50.640Z,5.23
2023-03-27T00:36:50.797Z,5.25
2023-03-27T00:37:50.948Z,5.25
2023-03-27T00:38:51.104Z,5.23
2023-03-27T00:39:51.261Z,5.20
2023-03-27T00:40:51.421Z,5.19
2023-03-27T00:41:51.617Z,5.20
2023-03-27T00:42:51.751Z,5.22
2023-03-27T00:43:51.920Z,5.22
2023-03-27T00:44:52.085Z,5.22
2023-03-27T00:45:52.242Z,5.22
2023-03-27T00:46:52.385Z,5.23
2023-03-27T00:47:52.584Z,5.23
2023-03-27T00:48:52.740Z,5.22
2023-03-27T00:49:52.893Z,5.23
2023-03-27T00:50:53.056Z,5.23
2023-03-27T00:51:53.223Z,5.20
2023-03-27T00:52:53.401Z,5.19
2023-03-27T00:53:53.578Z,5.18
2023-03-27T00:54:53.724Z,5.16
2023-03-27T00:55:53.992Z,5.16
2023-03-27T00:56:54.206Z,5.16
2023-03-27T00:57:54.374Z,5.15
2023-03-27T00:58:54.535Z,5.12
2023-03-27T00:59:54.694Z,5.12
2023-03-27T01:00:55.266Z,5.12
2023-03-27T01:01:55.050Z,5.10
2023-03-27T01:02:55.279Z,5.13
2023-03-27T01:03:56.545Z,5.13
2023-03-27T01:04:55.673Z,5.12
2023-03-27T01:05:55.840Z,5.15
2023-03-27T01:06:56.023Z,5.15
2023-03-27T01:08:00.672Z,5.13
2023-03-27T01:08:57.410Z,5.12
2023-03-27T01:09:56.592Z,5.16
2023-03-27T01:10:56.914Z,5.12
2023-03-27T01:11:56.996Z,5.10
2023-03-27T01:12:57.156Z,5.07
2023-03-27T01:13:57.315Z,5.05
2023-03-27T01:14:57.477Z,5.04
2023-03-27T01:15:57.667Z,5.01
2023-03-27T01:16:57.828Z,5.00
2023-03-27T01:17:58.060Z,5.00
2023-03-27T01:18:58.140Z,4.97
2023-03-27T01:19:58.406Z,4.92
2023-03-27T01:20:58.579Z,4.89
2023-03-27T01:21:58.774Z,4.87
2023-03-27T01:22:58.940Z,4.86
2023-03-27T01:24:00.750Z,4.84
2023-03-27T01:24:59.284Z,4.87
2023-03-27T01:25:59.449Z,4.87
2023-03-27T01:26:59.615Z,4.87
2023-03-27T01:27:59.779Z,4.86
2023-03-27T01:28:59.930Z,4.84
2023-03-27T01:30:00.110Z,4.86
2023-03-27T01:31:00.279Z,4.83
2023-03-27T01:32:00.418Z,4.83
2023-03-27T01:33:00.604Z,4.79
2023-03-27T01:34:00.777Z,4.83
2023-03-27T01:35:03.497Z,4.82
2023-03-27T01:36:01.207Z,4.83
2023-03-27T01:37:01.350Z,4.84
2023-03-27T01:38:01.517Z,4.84
2023-03-27T01:39:01.736Z,4.87
2023-03-27T01:40:01.872Z,4.83
2023-03-27T01:41:02.025Z,4.82
2023-03-27T01:42:02.205Z,4.78
2023-03-27T01:43:02.356Z,4.79
2023-03-27T01:44:02.533Z,4.83
2023-03-27T01:45:02.707Z,4.84
2023-03-27T01:46:02.859Z,4.87
2023-03-27T01:47:03.049Z,4.89
2023-03-27T01:48:03.286Z,4.95
2023-03-27T01:49:03.412Z,4.94
2023-03-27T01:50:03.584Z,4.94
2023-03-27T01:51:03.735Z,4.92
2023-03-27T01:52:03.906Z,4.97
2023-03-27T01:53:04.073Z,5.00
2023-03-27T01:54:04.237Z,4.97
2023-03-27T01:55:04.381Z,4.95
2023-03-27T01:56:04.548Z,4.95
2023-03-27T01:57:04.742Z,4.95
2023-03-27T01:58:04.879Z,4.95
2023-03-27T01:59:05.037Z,4.94
2023-03-27T02:00:18.760Z,4.94
2023-03-27T02:01:06.549Z,4.92
2023-03-27T02:02:05.545Z,4.87
2023-03-27T02:03:05.775Z,4.84
2023-03-27T02:04:05.913Z,4.83
2023-03-27T02:05:06.076Z,4.84
2023-03-27T02:06:06.208Z,4.86
2023-03-27T02:07:06.381Z,4.83
2023-03-27T02:08:06.568Z,4.83
2023-03-27T02:09:06.709Z,4.89
2023-03-27T02:10:06.872Z,4.84
2023-03-27T02:11:07.028Z,4.87
2023-03-27T02:12:07.230Z,4.83
2023-03-27T02:13:07.366Z,4.83
2023-03-27T02:14:07.527Z,4.83
2023-03-27T02:15:23.288Z,4.82
2023-03-27T02:16:08.877Z,4.82
2023-03-27T02:17:08.038Z,4.82
2023-03-27T02:18:08.195Z,4.79
2023-03-27T02:19:08.346Z,4.82
2023-03-27T02:20:08.524Z,4.75
2023-03-27T02:21:08.677Z,4.74
2023-03-27T02:22:08.862Z,4.67
2023-03-27T02:23:09.008Z,4.67
2023-03-27T02:24:09.202Z,4.66
2023-03-27T02:25:09.350Z,4.70
2023-03-27T02:26:09.518Z,4.71
2023-03-27T02:27:09.736Z,4.74
2023-03-27T02:28:09.927Z,4.74
2023-03-27T02:29:10.084Z,4.71
2023-03-27T02:30:10.255Z,4.68
2023-03-27T02:31:32.720Z,4.66
2023-03-27T02:32:11.790Z,4.64
2023-03-27T02:33:10.851Z,4.66
2023-03-27T02:34:10.992Z,4.61
2023-03-27T02:35:11.162Z,4.61
2023-03-27T02:36:11.402Z,4.64
2023-03-27T02:37:11.542Z,4.66
2023-03-27T02:38:11.749Z,4.66
2023-03-27T02:39:11.906Z,4.58
2023-03-27T02:40:12.059Z,4.50
2023-03-27T02:41:12.220Z,4.50
2023-03-27T02:42:12.392Z,4.49
2023-03-27T02:43:12.567Z,4.49
2023-03-27T02:44:12.721Z,4.49
2023-03-27T02:45:12.894Z,4.48
2023-03-27T02:46:13.106Z,4.48
2023-03-27T02:47:13.247Z,4.48
2023-03-27T02:48:13.438Z,4.46
2023-03-27T02:49:13.597Z,4.40
2023-03-27T02:50:13.770Z,4.32
2023-03-27T02:51:14.496Z,4.28
2023-03-27T02:52:14.115Z,4.27
2023-03-27T02:53:14.300Z,4.24
2023-03-27T02:54:14.478Z,4.25
2023-03-27T02:55:14.658Z,4.22
2023-03-27T02:56:14.844Z,4.16
2023-03-27T02:57:15.159Z,4.16
2023-03-27T02:58:15.245Z,4.12
2023-03-27T02:59:15.475Z,4.13
2023-03-27T03:00:15.645Z,4.00
2023-03-27T03:01:15.842Z,3.95
2023-03-27T03:02:16.065Z,3.95
2023-03-27T03:03:16.373Z,3.94
2023-03-27T03:04:16.401Z,3.91
2023-03-27T03:05:16.591Z,3.94
2023-03-27T03:06:16.758Z,3.96
2023-03-27T03:07:16.954Z,4.00
2023-03-27T03:08:17.142Z,4.02
2023-03-27T03:09:17.324Z,4.04
2023-03-27T03:10:17.498Z,4.06
2023-03-27T03:11:17.682Z,4.09
2023-03-27T03:12:17.881Z,4.13
2023-03-27T03:13:18.066Z,4.16
2023-03-27T03:14:18.245Z,4.18
2023-03-27T03:15:18.451Z,4.20
2023-03-27T03:16:18.674Z,4.20
2023-03-27T03:17:18.824Z,4.21
2023-03-27T03:18:19.024Z,4.22
2023-03-27T03:19:19.197Z,4.24
2023-03-27T03:20:19.370Z,4.13
2023-03-27T03:21:19.535Z,4.13
2023-03-27T03:22:20.177Z,4.10
2023-03-27T03:23:19.944Z,4.12
2023-03-27T03:24:20.119Z,4.09
2023-03-27T03:25:20.294Z,4.04
2023-03-27T03:26:20.468Z,4.03
2023-03-27T03:27:20.657Z,4.02
2023-03-27T03:28:20.842Z,3.99
2023-03-27T03:29:21.036Z,3.95
2023-03-27T03:30:21.235Z,3.95
2023-03-27T03:31:21.409Z,3.94
2023-03-27T03:32:21.619Z,3.95
2023-03-27T03:33:21.784Z,4.00
2023-03-27T03:34:21.938Z,4.02
2023-03-27T03:35:22.216Z,3.96
2023-03-27T03:36:22.366Z,3.99
2023-03-27T03:37:22.562Z,3.95
2023-03-27T03:38:22.735Z,3.94
2023-03-27T03:39:22.926Z,3.88
2023-03-27T03:40:23.094Z,3.85
2023-03-27T03:41:23.271Z,3.81
2023-03-27T03:42:24.115Z,3.78
2023-03-27T03:43:23.680Z,3.82
2023-03-27T03:44:23.861Z,3.84
2023-03-27T03:45:24.045Z,3.82
2023-03-27T03:46:24.258Z,3.78
2023-03-27T03:47:24.459Z,3.76
2023-03-27T03:48:24.624Z,3.74
2023-03-27T03:49:24.805Z,3.71
2023-03-27T03:50:24.981Z,3.71
2023-03-27T03:51:25.162Z,3.67
2023-03-27T03:52:25.337Z,3.64
2023-03-27T03:53:25.530Z,3.63
2023-03-27T03:54:25.711Z,3.59
2023-03-27T03:55:25.906Z,3.55
2023-03-27T03:56:26.060Z,3.49
2023-03-27T03:57:26.234Z,3.46
2023-03-27T03:58:34.497Z,3.46
2023-03-27T03:59:27.571Z,3.45
2023-03-27T04:00:26.773Z,3.40
2023-03-27T04:01:26.965Z,3.43
2023-03-27T04:02:27.204Z,3.40
2023-03-27T04:03:27.445Z,3.36
2023-03-27T04:04:27.518Z,3.33
2023-03-27T04:05:27.718Z,3.30
2023-03-27T04:06:27.906Z,3.30
2023-03-27T04:07:28.110Z,3.29
2023-03-27T04:08:28.322Z,3.27
2023-03-27T04:10:27.337Z,3.27
2023-03-27T04:11:27.434Z,3.22
2023-03-27T04:12:28.048Z,3.21
2023-03-27T04:13:27.715Z,3.18
2023-03-27T04:14:27.817Z,3.18
2023-03-27T04:15:27.945Z,3.13
2023-03-27T04:16:28.058Z,3.11
2023-03-27T04:17:28.255Z,3.08
2023-03-27T04:18:28.486Z,3.11
2023-03-27T04:19:28.554Z,3.09
2023-03-27T04:20:28.661Z,3.06
2023-03-27T04:21:28.789Z,3.06
2023-03-27T04:22:28.893Z,3.05
2023-03-27T04:23:29.051Z,3.05
2023-03-27T04:24:29.172Z,3.03
2023-03-27T04:25:29.331Z,3.00
2023-03-27T04:26:29.572Z,2.98
2023-03-27T04:27:29.618Z,2.95
2023-03-27T04:28:29.777Z,2.95
2023-03-27T04:29:29.928Z,2.94
2023-03-27T04:30:30.068Z,2.93
2023-03-27T04:31:30.409Z,2.91
2023-03-27T04:32:30.373Z,2.97
2023-03-27T04:33:30.896Z,3.00
2023-03-27T04:34:30.685Z,3.00
2023-03-27T04:35:30.847Z,3.00
2023-03-27T04:36:31.404Z,3.05
2023-03-27T04:37:31.252Z,3.03
2023-03-27T04:38:31.336Z,2.98
2023-03-27T04:39:31.545Z,2.95
2023-03-27T04:40:31.700Z,2.95
2023-03-27T04:41:31.844Z,2.94
2023-03-27T04:42:31.968Z,2.93
2023-03-27T04:43:32.121Z,2.93
2023-03-27T04:44:32.254Z,2.90
2023-03-27T04:45:32.419Z,2.90
2023-03-27T04:46:32.546Z,2.90
2023-03-27T04:47:32.718Z,2.90
2023-03-27T04:48:32.833Z,2.91
2023-03-27T04:49:32.966Z,2.91
2023-03-27T04:50:33.148Z,2.95
2023-03-27T04:51:33.269Z,2.98
2023-03-27T04:52:33.432Z,3.01
2023-03-27T04:53:33.558Z,2.98
2023-03-27T04:54:33.692Z,2.98
2023-03-27T04:55:33.818Z,3.01
2023-03-27T04:56:33.963Z,2.95
2023-03-27T04:57:34.097Z,2.95
2023-03-27T04:58:36.852Z,2.95
2023-03-27T04:59:34.361Z,2.93
2023-03-27T05:00:34.457Z,2.88
2023-03-27T05:01:34.611Z,2.83
2023-03-27T05:02:34.712Z,2.80
2023-03-27T05:03:35.278Z,2.80
2023-03-27T05:04:35.016Z,2.80
2023-03-27T05:05:35.186Z,2.83
2023-03-27T05:06:35.298Z,2.85
2023-03-27T05:07:35.425Z,2.80
2023-03-27T05:08:35.544Z,2.80
2023-03-27T05:09:35.648Z,2.79
2023-03-27T05:10:35.776Z,2.80
2023-03-27T05:11:35.895Z,2.83
2023-03-27T05:12:36.013Z,2.80
2023-03-27T05:13:36.168Z,2.77
2023-03-27T05:14:36.284Z,2.80
2023-03-27T05:15:36.436Z,2.82
2023-03-27T05:16:36.584Z,2.79
2023-03-27T05:17:36.742Z,2.82
2023-03-27T05:18:36.843Z,2.82
2023-03-27T05:19:37.945Z,2.80
2023-03-27T05:20:37.072Z,2.82
2023-03-27T05:21:37.201Z,2.82
2023-03-27T05:22:37.315Z,2.79
2023-03-27T05:23:37.481Z,2.80
2023-03-27T05:24:37.602Z,2.77
2023-03-27T05:25:37.720Z,2.75
2023-03-27T05:26:38.563Z,2.76
2023-03-27T05:27:37.955Z,2.79
2023-03-27T05:28:38.087Z,2.80
2023-03-27T05:29:46.987Z,2.83
2023-03-27T05:30:39.349Z,2.83
2023-03-27T05:31:38.461Z,2.82
2023-03-27T05:32:38.644Z,2.82
2023-03-27T05:33:38.770Z,2.85
2023-03-27T05:34:38.992Z,2.83
2023-03-27T05:35:39.008Z,2.85
2023-03-27T05:36:39.173Z,2.88
2023-03-27T05:37:39.310Z,2.88
2023-03-27T05:38:39.446Z,2.91
2023-03-27T05:39:39.570Z,2.90
2023-03-27T05:40:39.688Z,2.94
2023-03-27T05:41:39.829Z,3.00
2023-03-27T05:42:39.938Z,3.08
2023-03-27T05:43:40.122Z,3.13
2023-03-27T05:44:40.222Z,3.18
2023-03-27T05:45:40.336Z,3.29
2023-03-27T05:46:40.510Z,3.46
2023-03-27T05:47:40.656Z,3.58
2023-03-27T05:48:40.787Z,3.76
2023-03-27T05:49:40.912Z,3.82
2023-03-27T05:50:41.020Z,3.86
2023-03-27T05:51:47.146Z,3.99
2023-03-27T05:52:42.225Z,4.14
2023-03-27T05:53:41.324Z,4.28
2023-03-27T05:54:41.420Z,4.42
2023-03-27T05:55:41.525Z,4.48
2023-03-27T05:56:41.648Z,4.58
2023-03-27T05:57:41.705Z,4.78
2023-03-27T05:58:41.841Z,4.98
2023-03-27T05:59:41.963Z,5.07
2023-03-27T06:00:42.071Z,5.22
2023-03-27T06:01:42.138Z,5.22
2023-03-27T06:02:42.293Z,5.44
2023-03-27T06:03:42.489Z,5.69
2023-03-27T06:04:42.475Z,5.95
2023-03-27T06:05:42.543Z,6.06
2023-03-27T06:06:42.712Z,6.10
2023-03-27T06:07:43.594Z,5.97
2023-03-27T06:08:42.965Z,5.84
2023-03-27T06:09:43.129Z,6.01
2023-03-27T06:10:43.278Z,6.29
2023-03-27T06:11:43.448Z,6.02
2023-03-27T06:12:43.481Z,6.15
2023-03-27T06:13:43.615Z,6.17
2023-03-27T06:14:43.758Z,6.34
2023-03-27T06:15:43.910Z,6.41
2023-03-27T06:16:44.018Z,6.68
2023-03-27T06:17:44.186Z,7.00
2023-03-27T06:18:44.295Z,7.03
2023-03-27T06:19:48.881Z,7.10
2023-03-27T06:20:44.549Z,7.22
2023-03-27T06:21:44.783Z,7.47
2023-03-27T06:22:44.818Z,7.75
2023-03-27T06:23:44.874Z,7.62
2023-03-27T06:24:45.054Z,7.84
2023-03-27T06:25:45.096Z,8.02
2023-03-27T06:26:45.188Z,7.78
2023-03-27T06:27:45.323Z,8.11
2023-03-27T06:28:45.465Z,8.18
2023-03-27T06:29:45.452Z,8.36
2023-03-27T06:30:45.553Z,8.54
2023-03-27T06:31:45.684Z,8.50
2023-03-27T06:32:45.876Z,8.66
2023-03-27T06:33:45.924Z,8.66
2023-03-27T06:34:46.008Z,8.72
2023-03-27T06:35:53.020Z,8.77
2023-03-27T06:36:47.178Z,8.84
2023-03-27T06:37:46.758Z,8.49
2023-03-27T06:38:46.344Z,8.56
2023-03-27T06:39:46.405Z,8.52
2023-03-27T06:40:46.485Z,8.01
2023-03-27T06:41:46.560Z,7.29
2023-03-27T06:42:46.612Z,6.95
2023-03-27T06:43:46.683Z,6.90
2023-03-27T06:44:46.752Z,6.67
2023-03-27T06:45:46.826Z,6.56
2023-03-27T06:46:46.882Z,6.43
2023-03-27T06:47:53.943Z,6.38
2023-03-27T06:48:47.978Z,6.29
2023-03-27T06:49:47.023Z,6.10
2023-03-27T06:50:47.098Z,6.62
2023-03-27T06:51:47.202Z,6.32
2023-03-27T06:52:47.282Z,6.13
2023-03-27T06:53:47.341Z,5.98
2023-03-27T06:54:47.441Z,5.95
2023-03-27T06:55:47.530Z,5.90
2023-03-27T06:56:47.652Z,5.79
2023-03-27T06:57:47.725Z,5.64
2023-03-27T06:58:47.810Z,5.55
2023-03-27T06:59:47.902Z,5.44
2023-03-27T07:00:48.013Z,5.44
2023-03-27T07:01:48.162Z,5.44
2023-03-27T07:02:48.257Z,5.54
2023-03-27T07:03:48.332Z,5.69
2023-03-27T07:05:01.578Z,5.67
2023-03-27T07:05:49.571Z,5.62
2023-03-27T07:06:48.587Z,5.69
2023-03-27T07:07:49.410Z,5.79
2023-03-27T07:08:49.269Z,6.44
2023-03-27T07:09:48.866Z,6.64
2023-03-27T07:10:59.931Z,6.59
2023-03-27T07:11:50.022Z,6.85
2023-03-27T07:12:49.092Z,7.67
2023-03-27T07:13:49.180Z,8.87
2023-03-27T07:14:49.284Z,9.76
2023-03-27T07:15:49.368Z,9.49
2023-03-27T07:16:49.463Z,10.46
2023-03-27T07:17:49.713Z,10.79
2023-03-27T07:18:49.636Z,10.64
2023-03-27T07:19:49.735Z,10.53
2023-03-27T07:20:49.788Z,10.18
2023-03-27T07:21:50.155Z,9.58
2023-03-27T07:22:49.953Z,9.91
2023-03-27T07:23:49.998Z,10.61
2023-03-27T07:24:50.046Z,10.76
2023-03-27T07:25:50.343Z,10.95
2023-03-27T07:26:50.150Z,10.89
2023-03-27T07:27:50.201Z,9.92
2023-03-27T07:28:50.234Z,9.42
2023-03-27T07:29:50.275Z,8.31
2023-03-27T07:30:50.345Z,7.64
2023-03-27T07:32:50.462Z,8.78
2023-03-27T07:33:50.572Z,8.89
2023-03-27T07:34:50.635Z,8.63
2023-03-27T07:35:50.702Z,9.39
2023-03-27T07:36:50.781Z,8.56
2023-03-27T07:37:50.833Z,9.15
2023-03-27T07:38:50.846Z,9.81
2023-03-27T07:39:50.912Z,10.39
2023-03-27T07:40:50.951Z,10.23
2023-03-27T07:41:51.007Z,9.55
2023-03-27T07:42:51.046Z,8.81
2023-03-27T07:43:51.107Z,8.08
2023-03-27T07:44:51.152Z,7.58
2023-03-27T07:45:51.227Z,7.32
2023-03-27T07:46:51.220Z,6.95
2023-03-27T07:47:51.308Z,6.68
2023-03-27T07:48:51.319Z,6.62
2023-03-27T07:49:51.366Z,6.56
2023-03-27T07:50:52.909Z,6.68
2023-03-27T07:51:51.455Z,7.99
2023-03-27T07:52:51.497Z,7.88
2023-03-27T07:53:51.541Z,7.23
2023-03-27T07:54:51.616Z,6.70
2023-03-27T07:55:51.687Z,6.53
2023-03-27T07:56:51.859Z,6.43
2023-03-27T07:58:00.964Z,6.28
2023-03-27T07:58:52.962Z,6.13
2023-03-27T07:59:52.005Z,6.06
2023-03-27T08:00:52.097Z,6.13
2023-03-27T08:01:52.146Z,6.20
2023-03-27T08:02:52.314Z,6.17
2023-03-27T08:03:52.513Z,6.26
2023-03-27T08:04:52.521Z,6.19
2023-03-27T08:05:52.483Z,6.29
2023-03-27T08:06:52.558Z,6.38
2023-03-27T08:07:52.595Z,6.44
2023-03-27T08:08:52.695Z,6.38
2023-03-27T08:09:52.765Z,6.31
2023-03-27T08:10:52.825Z,6.83
2023-03-27T08:11:52.906Z,7.81
2023-03-27T08:12:52.968Z,8.52
2023-03-27T08:13:53.032Z,8.86
2023-03-27T08:14:53.114Z,8.23
2023-03-27T08:15:53.155Z,7.85
2023-03-27T08:16:55.833Z,7.64
2023-03-27T08:17:54.333Z,7.53
2023-03-27T08:18:53.357Z,7.41
2023-03-27T08:19:53.428Z,7.39
2023-03-27T08:20:53.485Z,7.78
2023-03-27T08:21:53.519Z,7.48
2023-03-27T08:22:53.578Z,7.91
2023-03-27T08:23:54.442Z,8.14
2023-03-27T08:24:53.733Z,8.05
2023-03-27T08:25:53.996Z,8.02
2023-03-27T08:26:53.889Z,7.78
2023-03-27T08:27:53.953Z,7.75
2023-03-27T08:28:54.047Z,7.81
2023-03-27T08:29:54.076Z,7.64
2023-03-27T08:30:54.187Z,7.46
2023-03-27T08:31:55.185Z,7.32
2023-03-27T08:32:54.358Z,7.08
2023-03-27T08:33:54.375Z,6.86
2023-03-27T08:34:54.416Z,6.85
2023-03-27T08:35:54.542Z,6.77
2023-03-27T08:36:54.558Z,6.72
2023-03-27T08:37:54.609Z,6.67
2023-03-27T08:38:54.723Z,6.56
2023-03-27T08:39:54.771Z,6.62
2023-03-27T08:40:54.826Z,6.62
2023-03-27T08:41:54.930Z,7.03
2023-03-27T08:42:54.995Z,7.47
2023-03-27T08:43:55.053Z,7.50
2023-03-27T08:44:55.126Z,7.53
2023-03-27T08:45:55.471Z,7.61
2023-03-27T08:46:55.374Z,7.67
2023-03-27T08:47:55.426Z,7.58
2023-03-27T08:48:55.470Z,7.39
2023-03-27T08:49:56.447Z,7.18
2023-03-27T08:50:55.618Z,7.10
2023-03-27T08:51:55.654Z,7.08
2023-03-27T08:52:55.837Z,7.11
2023-03-27T08:53:55.913Z,7.14
2023-03-27T08:54:55.982Z,8.20
2023-03-27T08:55:56.193Z,8.16
2023-03-27T08:56:56.187Z,9.42
2023-03-27T08:57:56.223Z,10.13
2023-03-27T08:58:56.293Z,10.15
2023-03-27T08:59:56.326Z,8.79
2023-03-27T09:00:56.360Z,9.19
2023-03-27T09:01:56.385Z,9.47
2023-03-27T09:02:56.490Z,10.00
2023-03-27T09:03:56.518Z,10.39
2023-03-27T09:04:56.531Z,10.28
2023-03-27T09:05:56.759Z,10.53
2023-03-27T09:06:56.649Z,10.72
2023-03-27T09:07:56.634Z,10.24
2023-03-27T09:08:56.650Z,9.97
2023-03-27T09:09:56.669Z,9.84
2023-03-27T09:10:56.682Z,9.91
2023-03-27T09:11:56.779Z,9.45
2023-03-27T09:12:56.845Z,9.18
2023-03-27T09:13:56.915Z,8.93
2023-03-27T09:14:56.918Z,8.74
2023-03-27T09:15:57.137Z,8.52
2023-03-27T09:16:57.045Z,8.16
2023-03-27T09:17:57.084Z,8.03
2023-03-27T09:18:57.099Z,8.03
2023-03-27T09:19:57.164Z,8.06
2023-03-27T09:20:57.161Z,7.95
2023-03-27T09:21:57.187Z,7.87
2023-03-27T09:22:57.231Z,7.75
2023-03-27T09:23:57.272Z,7.59
2023-03-27T09:24:57.331Z,7.48
2023-03-27T09:25:57.560Z,7.43
2023-03-27T09:27:06.812Z,7.51
2023-03-27T09:27:58.478Z,8.66
2023-03-27T09:28:57.530Z,8.57
2023-03-27T09:30:05.890Z,8.36
2023-03-27T09:30:58.607Z,8.75
2023-03-27T09:31:57.628Z,9.77
2023-03-27T09:32:57.734Z,10.57
2023-03-27T09:33:57.739Z,10.98
2023-03-27T09:34:57.865Z,11.30
2023-03-27T09:35:58.139Z,10.89
2023-03-27T09:36:57.920Z,11.08
2023-03-27T09:37:57.906Z,11.38
2023-03-27T09:38:57.936Z,11.60
2023-03-27T09:39:57.953Z,12.25
2023-03-27T09:40:57.947Z,12.78
2023-03-27T09:41:57.929Z,13.11
2023-03-27T09:42:57.927Z,13.01
2023-03-27T09:43:57.899Z,13.08
2023-03-27T09:44:57.872Z,13.20
2023-03-27T09:45:58.163Z,12.75
2023-03-27T09:46:57.859Z,12.11
2023-03-27T09:47:57.883Z,11.51
2023-03-27T09:48:57.834Z,11.68
2023-03-27T09:49:57.811Z,10.84
2023-03-27T09:50:58.003Z,10.31
2023-03-27T09:51:57.735Z,9.84
2023-03-27T09:52:57.777Z,9.02
2023-03-27T09:53:57.785Z,8.79
2023-03-27T09:54:57.756Z,9.42
2023-03-27T09:55:57.773Z,10.38
2023-03-27T09:56:57.794Z,11.37
2023-03-27T09:57:57.776Z,12.18
2023-03-27T09:58:57.767Z,12.86
2023-03-27T09:59:57.749Z,13.39
2023-03-27T10:00:57.958Z,13.64
2023-03-27T10:01:57.731Z,13.01
2023-03-27T10:02:57.737Z,12.26
2023-03-27T10:03:57.790Z,11.52
2023-03-27T10:04:57.744Z,11.01
2023-03-27T10:05:57.722Z,10.41
2023-03-27T10:06:57.707Z,9.94
2023-03-27T10:07:57.725Z,9.63
2023-03-27T10:08:57.741Z,9.34
2023-03-27T10:10:04.762Z,9.00
2023-03-27T10:10:58.042Z,9.00
2023-03-27T10:11:59.426Z,9.49
2023-03-27T10:12:59.417Z,9.84
2023-03-27T10:13:57.736Z,9.59
2023-03-27T10:14:57.766Z,9.44
2023-03-27T10:15:57.776Z,9.37
2023-03-27T10:16:57.818Z,9.09
2023-03-27T10:17:57.916Z,8.82
2023-03-27T10:18:57.891Z,8.59
2023-03-27T10:19:57.890Z,8.50
2023-03-27T10:20:58.109Z,8.36
2023-03-27T10:21:57.977Z,8.31
2023-03-27T10:22:58.003Z,8.34
2023-03-27T10:23:58.015Z,8.72
2023-03-27T10:24:58.021Z,8.93
2023-03-27T10:25:58.054Z,9.12
2023-03-27T10:26:58.096Z,9.27
2023-03-27T10:27:58.092Z,9.85
2023-03-27T10:28:58.117Z,10.69
2023-03-27T10:29:58.130Z,11.60
2023-03-27T10:30:58.421Z,11.93
2023-03-27T10:31:58.284Z,12.30
2023-03-27T10:32:58.302Z,13.02
2023-03-27T10:33:58.248Z,13.76
2023-03-27T10:34:58.369Z,14.49
2023-03-27T10:35:58.307Z,14.36
2023-03-27T10:36:58.211Z,14.30
2023-03-27T10:37:58.292Z,14.04
2023-03-27T10:38:58.266Z,14.04
2023-03-27T10:39:58.236Z,14.31
2023-03-27T10:40:58.447Z,14.43
2023-03-27T10:41:58.152Z,14.79
2023-03-27T10:42:58.115Z,15.27
2023-03-27T10:43:58.085Z,14.79
2023-03-27T10:44:58.015Z,13.87
2023-03-27T10:45:57.999Z,13.60
2023-03-27T10:46:57.980Z,13.52
2023-03-27T10:47:57.974Z,12.88
2023-03-27T10:48:57.876Z,12.90
2023-03-27T10:49:57.830Z,12.55
2023-03-27T10:50:58.123Z,12.18
2023-03-27T10:51:57.757Z,11.53
2023-03-27T10:52:57.792Z,11.55
2023-03-27T10:53:57.837Z,11.76
2023-03-27T10:54:57.704Z,12.54
2023-03-27T10:55:57.669Z,12.28
2023-03-27T10:56:57.698Z,12.47
2023-03-27T10:57:57.641Z,13.52
2023-03-27T10:58:57.600Z,14.34
2023-03-27T10:59:57.558Z,14.62
2023-03-27T11:00:57.703Z,14.51
2023-03-27T11:01:57.586Z,13.28
2023-03-27T11:02:57.676Z,12.30
2023-03-27T11:03:57.601Z,11.48
2023-03-27T11:04:57.554Z,10.90
2023-03-27T11:05:57.543Z,10.46
2023-03-27T11:06:57.506Z,10.17
2023-03-27T11:07:57.508Z,10.06
2023-03-27T11:08:57.501Z,10.09
2023-03-27T11:09:57.482Z,10.09
2023-03-27T11:10:57.684Z,11.13
2023-03-27T11:11:57.500Z,12.39
2023-03-27T11:12:57.495Z,12.30
2023-03-27T11:13:57.526Z,12.23
2023-03-27T11:14:57.507Z,11.52
2023-03-27T11:15:57.482Z,11.15
2023-03-27T11:16:57.483Z,11.68
2023-03-27T11:17:57.511Z,12.29
2023-03-27T11:18:57.439Z,13.19
2023-03-27T11:19:57.414Z,13.93
2023-03-27T11:20:57.583Z,14.62
2023-03-27T11:21:57.435Z,14.70
2023-03-27T11:22:57.399Z,14.37
2023-03-27T11:23:57.411Z,14.38
2023-03-27T11:24:57.314Z,14.08
2023-03-27T11:25:57.283Z,13.85
2023-03-27T11:26:57.236Z,14.05
2023-03-27T11:27:57.190Z,13.89
2023-03-27T11:28:57.139Z,13.57
2023-03-27T11:29:57.127Z,12.94
2023-03-27T11:30:57.388Z,12.63
2023-03-27T11:31:57.210Z,12.61
2023-03-27T11:32:57.134Z,12.90
2023-03-27T11:33:57.117Z,12.81
2023-03-27T11:34:57.081Z,12.75
2023-03-27T11:35:57.138Z,12.20
2023-03-27T11:36:57.090Z,11.20
2023-03-27T11:37:57.071Z,11.19
2023-03-27T11:38:57.011Z,11.43
2023-03-27T11:39:57.023Z,12.03
2023-03-27T11:40:57.194Z,12.88
2023-03-27T11:41:56.971Z,13.54
2023-03-27T11:42:56.935Z,13.91
2023-03-27T11:43:56.901Z,13.93
2023-03-27T11:44:56.877Z,14.03
2023-03-27T11:45:56.850Z,14.61
2023-03-27T11:46:56.784Z,14.97
2023-03-27T11:47:56.795Z,15.23
2023-03-27T11:48:56.697Z,14.79
2023-03-27T11:49:56.688Z,14.25
2023-03-27T11:50:56.921Z,13.80
2023-03-27T11:51:56.591Z,14.12
2023-03-27T11:52:56.536Z,14.62
2023-03-27T11:53:56.510Z,15.00
2023-03-27T11:54:56.430Z,15.51
2023-03-27T11:55:56.355Z,15.94
2023-03-27T11:56:56.381Z,15.84
2023-03-27T11:57:56.313Z,15.72
2023-03-27T11:58:56.258Z,15.62
2023-03-27T11:59:56.239Z,15.15
2023-03-27T12:00:56.309Z,14.92
2023-03-27T12:01:56.181Z,14.79
2023-03-27T12:02:56.219Z,14.63
2023-03-27T12:03:56.164Z,15.08
2023-03-27T12:04:55.964Z,15.18
2023-03-27T12:05:55.899Z,15.54
2023-03-27T12:06:57.043Z,14.66
2023-03-27T12:07:56.173Z,13.20
2023-03-27T12:08:55.777Z,12.14
2023-03-27T12:09:55.700Z,11.45
2023-03-27T12:10:55.936Z,10.95
2023-03-27T12:11:55.650Z,10.31
2023-03-27T12:12:55.615Z,9.88
2023-03-27T12:14:01.861Z,9.67
2023-03-27T12:14:56.534Z,9.16
2023-03-27T12:15:55.501Z,8.96
2023-03-27T12:16:55.531Z,8.77
2023-03-27T12:17:55.571Z,8.68
2023-03-27T12:19:03.981Z,8.74
2023-03-27T12:19:56.668Z,9.70
2023-03-27T12:20:55.682Z,10.51
2023-03-27T12:21:55.697Z,10.38
2023-03-27T12:22:55.695Z,10.21
2023-03-27T12:23:55.672Z,10.27
2023-03-27T12:24:59.699Z,11.40
2023-03-27T12:25:55.682Z,11.89
2023-03-27T12:26:55.668Z,12.66
2023-03-27T12:27:55.766Z,13.21
2023-03-27T12:28:55.744Z,13.65
2023-03-27T12:29:55.828Z,14.22
2023-03-27T12:30:55.983Z,14.66
2023-03-27T12:31:55.886Z,14.89
2023-03-27T12:32:57.195Z,15.57
2023-03-27T12:33:55.822Z,16.13
2023-03-27T12:34:55.781Z,16.13
2023-03-27T12:35:55.773Z,15.94
2023-03-27T12:36:55.711Z,15.85
2023-03-27T12:37:55.673Z,15.80
2023-03-27T12:38:55.617Z,15.96
2023-03-27T12:39:55.570Z,15.99
2023-03-27T12:40:55.683Z,15.00
2023-03-27T12:41:55.519Z,14.01
2023-03-27T12:42:55.463Z,14.67
2023-03-27T12:43:55.431Z,13.94
2023-03-27T12:44:55.371Z,14.34
2023-03-27T12:45:55.400Z,15.10
2023-03-27T12:46:55.280Z,16.08
2023-03-27T12:47:55.264Z,16.37
2023-03-27T12:48:55.191Z,15.66
2023-03-27T12:49:55.130Z,15.69
2023-03-27T12:50:55.372Z,16.13
2023-03-27T12:51:55.005Z,16.66
2023-03-27T12:52:54.938Z,16.64
2023-03-27T12:53:54.895Z,16.24
2023-03-27T12:54:54.818Z,14.81
2023-03-27T12:55:54.964Z,14.01
2023-03-27T12:56:54.797Z,13.11
2023-03-27T12:57:54.980Z,12.68
2023-03-27T12:58:54.745Z,12.14
2023-03-27T12:59:54.703Z,11.85
2023-03-27T13:00:54.702Z,11.56
2023-03-27T13:01:54.696Z,11.26
2023-03-27T13:02:54.738Z,10.84
2023-03-27T13:03:54.798Z,10.41
2023-03-27T13:04:54.683Z,10.10
2023-03-27T13:05:54.682Z,9.67
2023-03-27T13:06:54.664Z,9.40
2023-03-27T13:07:54.845Z,9.09
2023-03-27T13:08:54.639Z,8.86
2023-03-27T13:09:54.654Z,8.71
2023-03-27T13:10:54.766Z,8.57
2023-03-27T13:11:54.709Z,8.63
2023-03-27T13:12:54.726Z,8.90
2023-03-27T13:13:54.811Z,9.63
2023-03-27T13:14:54.844Z,10.79